sensor_id;sensor_type;location;lat;lon;timestamp;pressure;altitude;pressure_sealevel;temperature;humidity
45872;BME280;32333;55.844;-3.210;2023-02-13T00:01:52;101192.62;;;5.26;100.00
45872;BME280;32333;55.844;-3.210;2023-02-13T00:04:20;101189.86;;;6.49;100.00
45872;BME280;32333;55.844;-3.210;2023-02-13T00:06:48;101188.39;;;6.03;100.00
45872;BME280;32333;55.844;-3.210;2023-02-13T00:09:16;101189.01;;;5.87;100.00
45872;BME280;32333;55.844;-3.210;2023-02-13T00:11:43;101193.88;;;5.98;100.00
45872;BME280;32333;55.844;-3.210;2023-02-13T00:14:36;101203.01;;;4.24;100.00
45872;BME280;32333;55.844;-3.210;2023-02-13T00:17:04;101204.84;;;5.64;100.00
45872;BME280;32333;55.844;-3.210;2023-02-13T00:19:32;101205.28;;;5.10;100.00
45872;BME280;32333;55.844;-3.210;2023-02-13T00:22:00;101213.38;;;5.96;100.00
45872;BME280;32333;55.844;-3.210;2023-02-13T00:24:28;101217.29;;;5.90;100.00
45872;BME280;32333;55.844;-3.210;2023-02-13T00:26:56;101213.17;;;4.37;100.00
45872;BME280;32333;55.844;-3.210;2023-02-13T00:29:25;101214.28;;;4.66;100.00
45872;BME280;32333;55.844;-3.210;2023-02-13T00:31:53;101215.44;;;5.93;100.00
45872;BME280;32333;55.844;-3.210;2023-02-13T00:34:20;101216.42;;;5.14;100.00
45872;BME280;32333;55.844;-3.210;2023-02-13T00:36:50;101222.53;;;4.02;100.00
45872;BME280;32333;55.844;-3.210;2023-02-13T00:39:18;101215.23;;;5.20;100.00
45872;BME280;32333;55.844;-3.210;2023-02-13T00:41:45;101212.69;;;6.06;100.00
45872;BME280;32333;55.844;-3.210;2023-02-13T00:44:36;101208.40;;;5.67;100.00
45872;BME280;32333;55.844;-3.210;2023-02-13T00:47:04;101198.00;;;5.15;100.00
45872;BME280;32333;55.844;-3.210;2023-02-13T00:49:31;101201.73;;;4.04;100.00
45872;BME280;32333;55.844;-3.210;2023-02-13T00:52:00;101194.70;;;5.61;100.00
45872;BME280;32333;55.844;-3.210;2023-02-13T00:54:27;101190.13;;;5.14;100.00
45872;BME280;32333;55.844;-3.210;2023-02-13T00:56:55;101189.20;;;4.39;100.00
45872;BME280;32333;55.844;-3.210;2023-02-13T00:59:25;101185.88;;;4.38;100.00
45872;BME280;32333;55.844;-3.210;2023-02-13T01:01:52;101188.72;;;3.88;100.00
45872;BME280;32333;55.844;-3.210;2023-02-13T01:04:20;101190.98;;;4.07;100.00
45872;BME280;32333;55.844;-3.210;2023-02-13T01:06:49;101186.09;;;4.90;100.00
45872;BME280;32333;55.844;-3.210;2023-02-13T01:09:16;101178.49;;;4.43;100.00
45872;BME280;32333;55.844;-3.210;2023-02-13T01:11:44;101170.45;;;5.73;100.00
45872;BME280;32333;55.844;-3.210;2023-02-13T01:14:36;101164.95;;;4.46;100.00
45872;BME280;32333;55.844;-3.210;2023-02-13T01:17:04;101165.76;;;4.11;100.00
45872;BME280;32333;55.844;-3.210;2023-02-13T01:19:33;101168.73;;;3.78;100.00
45872;BME280;32333;55.844;-3.210;2023-02-13T01:22:01;101165.09;;;4.10;100.00
45872;BME280;32333;55.844;-3.210;2023-02-13T01:24:31;101163.04;;;4.87;100.00
45872;BME280;32333;55.844;-3.210;2023-02-13T01:26:59;101160.42;;;5.42;100.00
45872;BME280;32333;55.844;-3.210;2023-02-13T01:29:26;101159.12;;;4.61;100.00
45872;BME280;32333;55.844;-3.210;2023-02-13T01:31:55;101158.44;;;4.56;100.00
45872;BME280;32333;55.844;-3.210;2023-02-13T01:34:23;101162.38;;;5.05;100.00
45872;BME280;32333;55.844;-3.210;2023-02-13T01:36:50;101167.17;;;3.00;100.00
45872;BME280;32333;55.844;-3.210;2023-02-13T01:39:19;101166.04;;;4.17;100.00
45872;BME280;32333;55.844;-3.210;2023-02-13T01:41:46;101158.09;;;4.29;100.00
45872;BME280;32333;55.844;-3.210;2023-02-13T01:44:50;101162.66;;;4.03;100.00
45872;BME280;32333;55.844;-3.210;2023-02-13T01:47:23;101163.82;;;3.47;100.00
45872;BME280;32333;55.844;-3.210;2023-02-13T01:50:02;101154.57;;;4.63;100.00
45872;BME280;32333;55.844;-3.210;2023-02-13T01:52:32;101147.30;;;4.69;100.00
45872;BME280;32333;55.844;-3.210;2023-02-13T01:55:04;101145.94;;;4.04;100.00
45872;BME280;32333;55.844;-3.210;2023-02-13T01:57:33;101138.99;;;4.08;100.00
45872;BME280;32333;55.844;-3.210;2023-02-13T02:00:03;101144.25;;;4.38;100.00
45872;BME280;32333;55.844;-3.210;2023-02-13T02:02:35;101146.94;;;3.21;100.00
45872;BME280;32333;55.844;-3.210;2023-02-13T02:05:06;101148.04;;;3.76;100.00
45872;BME280;32333;55.844;-3.210;2023-02-13T02:07:37;101148.16;;;3.52;100.00
45872;BME280;32333;55.844;-3.210;2023-02-13T02:10:10;101146.93;;;3.09;100.00
45872;BME280;32333;55.844;-3.210;2023-02-13T02:14:36;101142.46;;;3.70;100.00
45872;BME280;32333;55.844;-3.210;2023-02-13T02:17:04;101140.07;;;3.85;100.00
45872;BME280;32333;55.844;-3.210;2023-02-13T02:19:38;101138.10;;;2.91;100.00
45872;BME280;32333;55.844;-3.210;2023-02-13T02:23:46;101137.34;;;3.96;100.00
45872;BME280;32333;55.844;-3.210;2023-02-13T02:26:59;101137.39;;;2.98;100.00
45872;BME280;32333;55.844;-3.210;2023-02-13T02:29:55;101137.19;;;2.93;100.00
45872;BME280;32333;55.844;-3.210;2023-02-13T02:32:49;101136.67;;;3.12;100.00
45872;BME280;32333;55.844;-3.210;2023-02-13T02:35:29;101133.35;;;2.58;100.00
45872;BME280;32333;55.844;-3.210;2023-02-13T02:38:11;101136.45;;;2.21;100.00
45872;BME280;32333;55.844;-3.210;2023-02-13T02:40:51;101137.33;;;1.64;100.00
45872;BME280;32333;55.844;-3.210;2023-02-13T02:44:41;101136.91;;;1.89;100.00
45872;BME280;32333;55.844;-3.210;2023-02-13T02:47:19;101137.07;;;2.84;100.00
45872;BME280;32333;55.844;-3.210;2023-02-13T02:49:54;101141.64;;;3.46;100.00
45872;BME280;32333;55.844;-3.210;2023-02-13T02:52:36;101139.45;;;3.42;100.00
45872;BME280;32333;55.844;-3.210;2023-02-13T02:55:11;101136.39;;;3.65;100.00
45872;BME280;32333;55.844;-3.210;2023-02-13T02:57:46;101131.03;;;2.38;100.00
45872;BME280;32333;55.844;-3.210;2023-02-13T03:00:16;101132.78;;;1.85;100.00
45872;BME280;32333;55.844;-3.210;2023-02-13T03:02:44;101131.78;;;3.11;100.00
45872;BME280;32333;55.844;-3.210;2023-02-13T03:05:18;101133.02;;;2.99;100.00
45872;BME280;32333;55.844;-3.210;2023-02-13T03:07:48;101132.93;;;2.02;100.00
45872;BME280;32333;55.844;-3.210;2023-02-13T03:10:22;101127.50;;;2.63;100.00
45872;BME280;32333;55.844;-3.210;2023-02-13T03:14:36;101129.43;;;2.05;100.00
45872;BME280;32333;55.844;-3.210;2023-02-13T03:17:07;101127.80;;;0.63;100.00
45872;BME280;32333;55.844;-3.210;2023-02-13T03:19:46;101124.25;;;2.60;100.00
45872;BME280;32333;55.844;-3.210;2023-02-13T03:27:06;101118.41;;;-0.02;100.00
45872;BME280;32333;55.844;-3.210;2023-02-13T03:30:53;101118.85;;;0.67;100.00
45872;BME280;32333;55.844;-3.210;2023-02-13T03:33:33;101118.45;;;0.30;100.00
45872;BME280;32333;55.844;-3.210;2023-02-13T03:36:20;101114.08;;;0.50;100.00
45872;BME280;32333;55.844;-3.210;2023-02-13T03:38:55;101114.82;;;1.33;100.00
45872;BME280;32333;55.844;-3.210;2023-02-13T03:41:26;101113.33;;;-0.05;100.00
45872;BME280;32333;55.844;-3.210;2023-02-13T03:44:36;101115.73;;;2.22;100.00
45872;BME280;32333;55.844;-3.210;2023-02-13T03:47:09;101111.38;;;0.33;100.00
45872;BME280;32333;55.844;-3.210;2023-02-13T03:49:43;101111.32;;;1.05;100.00
45872;BME280;32333;55.844;-3.210;2023-02-13T03:52:18;101111.31;;;1.36;100.00
45872;BME280;32333;55.844;-3.210;2023-02-13T03:54:53;101106.08;;;1.09;100.00
45872;BME280;32333;55.844;-3.210;2023-02-13T03:57:23;101106.65;;;-0.03;100.00
45872;BME280;32333;55.844;-3.210;2023-02-13T03:59:54;101105.30;;;0.48;100.00
45872;BME280;32333;55.844;-3.210;2023-02-13T04:02:29;101101.06;;;0.77;100.00
45872;BME280;32333;55.844;-3.210;2023-02-13T04:05:01;101106.34;;;1.66;100.00
45872;BME280;32333;55.844;-3.210;2023-02-13T04:07:29;101109.08;;;1.45;100.00
45872;BME280;32333;55.844;-3.210;2023-02-13T04:10:00;101115.30;;;0.40;100.00
45872;BME280;32333;55.844;-3.210;2023-02-13T04:14:39;101110.20;;;0.98;100.00
45872;BME280;32333;55.844;-3.210;2023-02-13T04:17:10;101113.01;;;0.99;100.00
45872;BME280;32333;55.844;-3.210;2023-02-13T04:19:40;101111.94;;;-0.49;100.00
45872;BME280;32333;55.844;-3.210;2023-02-13T04:22:07;101112.95;;;-0.54;100.00
45872;BME280;32333;55.844;-3.210;2023-02-13T04:24:37;101115.28;;;-0.05;100.00
45872;BME280;32333;55.844;-3.210;2023-02-13T04:27:05;101110.67;;;1.38;100.00
45872;BME280;32333;55.844;-3.210;2023-02-13T04:29:34;101114.26;;;-1.43;100.00
45872;BME280;32333;55.844;-3.210;2023-02-13T04:32:01;101107.84;;;0.28;100.00
45872;BME280;32333;55.844;-3.210;2023-02-13T04:34:29;101105.30;;;-0.40;100.00
45872;BME280;32333;55.844;-3.210;2023-02-13T04:36:56;101099.28;;;0.16;100.00
45872;BME280;32333;55.844;-3.210;2023-02-13T04:39:24;101104.41;;;1.80;100.00
45872;BME280;32333;55.844;-3.210;2023-02-13T04:41:53;101103.81;;;-0.94;100.00
45872;BME280;32333;55.844;-3.210;2023-02-13T04:44:36;101106.80;;;-1.38;100.00
45872;BME280;32333;55.844;-3.210;2023-02-13T04:47:03;101104.43;;;-0.91;100.00
45872;BME280;32333;55.844;-3.210;2023-02-13T04:49:32;101099.53;;;0.37;100.00
45872;BME280;32333;55.844;-3.210;2023-02-13T04:52:42;101095.22;;;0.48;100.00
45872;BME280;32333;55.844;-3.210;2023-02-13T04:55:10;101097.67;;;1.30;100.00
45872;BME280;32333;55.844;-3.210;2023-02-13T04:57:39;101100.91;;;0.99;100.00
45872;BME280;32333;55.844;-3.210;2023-02-13T05:00:08;101104.32;;;0.57;100.00
45872;BME280;32333;55.844;-3.210;2023-02-13T05:02:36;101100.24;;;0.79;100.00
45872;BME280;32333;55.844;-3.210;2023-02-13T05:05:03;101105.61;;;-0.95;100.00
45872;BME280;32333;55.844;-3.210;2023-02-13T05:07:32;101101.98;;;-0.85;100.00
45872;BME280;32333;55.844;-3.210;2023-02-13T05:10:00;101095.96;;;0.35;100.00
45872;BME280;32333;55.844;-3.210;2023-02-13T05:14:35;101103.94;;;-0.82;100.00
45872;BME280;32333;55.844;-3.210;2023-02-13T05:17:02;101105.90;;;-0.16;100.00
45872;BME280;32333;55.844;-3.210;2023-02-13T05:19:30;101103.52;;;-0.19;100.00
45872;BME280;32333;55.844;-3.210;2023-02-13T05:21:59;101103.01;;;-1.01;100.00
45872;BME280;32333;55.844;-3.210;2023-02-13T05:24:26;101096.58;;;-0.15;100.00
45872;BME280;32333;55.844;-3.210;2023-02-13T05:26:54;101096.37;;;-0.31;100.00
45872;BME280;32333;55.844;-3.210;2023-02-13T05:29:22;101097.27;;;-1.34;100.00
45872;BME280;32333;55.844;-3.210;2023-02-13T05:31:51;101088.87;;;0.96;100.00
45872;BME280;32333;55.844;-3.210;2023-02-13T05:34:20;101082.42;;;0.33;100.00
45872;BME280;32333;55.844;-3.210;2023-02-13T05:36:49;101082.92;;;-1.53;100.00
45872;BME280;32333;55.844;-3.210;2023-02-13T05:39:17;101082.57;;;-0.70;100.00
45872;BME280;32333;55.844;-3.210;2023-02-13T05:41:45;101079.65;;;-0.24;100.00
45872;BME280;32333;55.844;-3.210;2023-02-13T05:44:35;101073.48;;;-0.07;100.00
45872;BME280;32333;55.844;-3.210;2023-02-13T05:47:03;101072.85;;;-0.69;100.00
45872;BME280;32333;55.844;-3.210;2023-02-13T05:49:32;101079.70;;;-0.80;100.00
45872;BME280;32333;55.844;-3.210;2023-02-13T05:52:02;101084.95;;;-0.26;100.00
45872;BME280;32333;55.844;-3.210;2023-02-13T05:54:30;101085.58;;;-1.30;100.00
45872;BME280;32333;55.844;-3.210;2023-02-13T05:56:57;101085.43;;;-1.77;100.00
45872;BME280;32333;55.844;-3.210;2023-02-13T05:59:24;101082.46;;;-1.55;100.00
45872;BME280;32333;55.844;-3.210;2023-02-13T06:01:54;101074.64;;;-0.02;100.00
45872;BME280;32333;55.844;-3.210;2023-02-13T06:04:22;101078.39;;;-1.55;100.00
45872;BME280;32333;55.844;-3.210;2023-02-13T06:06:49;101074.95;;;0.22;100.00
45872;BME280;32333;55.844;-3.210;2023-02-13T06:09:18;101077.13;;;0.87;100.00
45872;BME280;32333;55.844;-3.210;2023-02-13T06:11:46;101074.76;;;0.15;100.00
45872;BME280;32333;55.844;-3.210;2023-02-13T06:14:37;101087.96;;;-1.69;100.00
45872;BME280;32333;55.844;-3.210;2023-02-13T06:17:05;101093.59;;;-1.43;100.00
45872;BME280;32333;55.844;-3.210;2023-02-13T06:19:33;101093.35;;;0.07;100.00
45872;BME280;32333;55.844;-3.210;2023-02-13T06:22:00;101094.88;;;0.10;100.00
45872;BME280;32333;55.844;-3.210;2023-02-13T06:24:28;101094.51;;;-0.18;100.00
45872;BME280;32333;55.844;-3.210;2023-02-13T06:26:56;101099.11;;;-0.66;100.00
45872;BME280;32333;55.844;-3.210;2023-02-13T06:29:23;101099.72;;;-0.66;100.00
45872;BME280;32333;55.844;-3.210;2023-02-13T06:31:51;101103.73;;;-0.37;100.00
45872;BME280;32333;55.844;-3.210;2023-02-13T06:34:18;101108.50;;;-0.38;100.00
45872;BME280;32333;55.844;-3.210;2023-02-13T06:36:47;101101.30;;;0.08;100.00
45872;BME280;32333;55.844;-3.210;2023-02-13T06:39:16;101106.15;;;-2.02;100.00
45872;BME280;32333;55.844;-3.210;2023-02-13T06:41:44;101112.23;;;-1.27;100.00
45872;BME280;32333;55.844;-3.210;2023-02-13T06:44:36;101110.25;;;-0.02;100.00
45872;BME280;32333;55.844;-3.210;2023-02-13T06:47:04;101109.12;;;-0.10;100.00
45872;BME280;32333;55.844;-3.210;2023-02-13T06:49:31;101108.29;;;-0.12;100.00
45872;BME280;32333;55.844;-3.210;2023-02-13T06:52:00;101107.54;;;-0.28;100.00
45872;BME280;32333;55.844;-3.210;2023-02-13T06:54:28;101110.65;;;-2.24;100.00
45872;BME280;32333;55.844;-3.210;2023-02-13T06:56:55;101103.54;;;-2.02;100.00
45872;BME280;32333;55.844;-3.210;2023-02-13T06:59:23;101112.50;;;-0.82;100.00
45872;BME280;32333;55.844;-3.210;2023-02-13T07:01:52;101108.77;;;-0.52;100.00
45872;BME280;32333;55.844;-3.210;2023-02-13T07:04:19;101100.80;;;-0.26;100.00
45872;BME280;32333;55.844;-3.210;2023-02-13T07:06:47;101109.27;;;-0.99;100.00
45872;BME280;32333;55.844;-3.210;2023-02-13T07:09:15;101109.20;;;-0.45;100.00
45872;BME280;32333;55.844;-3.210;2023-02-13T07:11:43;101112.69;;;-1.07;100.00
45872;BME280;32333;55.844;-3.210;2023-02-13T07:14:36;101110.56;;;-0.90;100.00
45872;BME280;32333;55.844;-3.210;2023-02-13T07:17:04;101104.80;;;0.04;100.00
45872;BME280;32333;55.844;-3.210;2023-02-13T07:19:33;101104.63;;;-0.36;100.00
45872;BME280;32333;55.844;-3.210;2023-02-13T07:22:01;101108.19;;;-0.27;100.00
45872;BME280;32333;55.844;-3.210;2023-02-13T07:24:28;101110.99;;;-1.67;100.00
45872;BME280;32333;55.844;-3.210;2023-02-13T07:26:56;101111.96;;;-1.08;100.00
45872;BME280;32333;55.844;-3.210;2023-02-13T07:29:24;101110.47;;;1.11;100.00
45872;BME280;32333;55.844;-3.210;2023-02-13T07:31:52;101117.08;;;-1.33;100.00
45872;BME280;32333;55.844;-3.210;2023-02-13T07:34:22;101119.21;;;-2.38;100.00
45872;BME280;32333;55.844;-3.210;2023-02-13T07:36:50;101123.24;;;-1.34;100.00
45872;BME280;32333;55.844;-3.210;2023-02-13T07:39:27;101118.92;;;-2.06;100.00
45872;BME280;32333;55.844;-3.210;2023-02-13T07:41:55;101120.04;;;-1.81;100.00
45872;BME280;32333;55.844;-3.210;2023-02-13T07:44:35;101123.60;;;-1.50;100.00
45872;BME280;32333;55.844;-3.210;2023-02-13T07:47:03;101122.58;;;0.52;100.00
45872;BME280;32333;55.844;-3.210;2023-02-13T07:49:31;101129.38;;;-2.78;100.00
45872;BME280;32333;55.844;-3.210;2023-02-13T07:51:58;101129.00;;;-0.30;100.00
45872;BME280;32333;55.844;-3.210;2023-02-13T07:54:27;101130.40;;;-0.06;100.00
45872;BME280;32333;55.844;-3.210;2023-02-13T07:56:54;101124.72;;;0.20;100.00
45872;BME280;32333;55.844;-3.210;2023-02-13T07:59:22;101130.38;;;-0.76;100.00
45872;BME280;32333;55.844;-3.210;2023-02-13T08:01:49;101132.29;;;-0.82;100.00
45872;BME280;32333;55.844;-3.210;2023-02-13T08:04:17;101130.30;;;-2.25;100.00
45872;BME280;32333;55.844;-3.210;2023-02-13T08:06:45;101131.74;;;-2.15;100.00
45872;BME280;32333;55.844;-3.210;2023-02-13T08:09:18;101132.36;;;-1.32;100.00
45872;BME280;32333;55.844;-3.210;2023-02-13T08:11:45;101127.67;;;-1.18;100.00
45872;BME280;32333;55.844;-3.210;2023-02-13T08:14:37;101122.90;;;1.07;100.00
45872;BME280;32333;55.844;-3.210;2023-02-13T08:17:08;101120.20;;;1.50;100.00
45872;BME280;32333;55.844;-3.210;2023-02-13T08:19:37;101119.06;;;2.00;100.00
45872;BME280;32333;55.844;-3.210;2023-02-13T08:22:06;101118.69;;;0.20;100.00
45872;BME280;32333;55.844;-3.210;2023-02-13T08:24:35;101126.85;;;-0.96;100.00
45872;BME280;32333;55.844;-3.210;2023-02-13T08:27:03;101131.05;;;-0.56;100.00
45872;BME280;32333;55.844;-3.210;2023-02-13T08:29:31;101135.08;;;-0.10;100.00
45872;BME280;32333;55.844;-3.210;2023-02-13T08:32:01;101123.36;;;0.55;100.00
45872;BME280;32333;55.844;-3.210;2023-02-13T08:34:29;101118.58;;;2.52;100.00
45872;BME280;32333;55.844;-3.210;2023-02-13T08:36:56;101117.30;;;2.82;100.00
45872;BME280;32333;55.844;-3.210;2023-02-13T08:39:25;101114.91;;;2.20;100.00
45872;BME280;32333;55.844;-3.210;2023-02-13T08:41:53;101114.41;;;1.51;100.00
45872;BME280;32333;55.844;-3.210;2023-02-13T08:44:35;101103.64;;;2.65;100.00
45872;BME280;32333;55.844;-3.210;2023-02-13T08:47:38;101111.43;;;2.56;100.00
45872;BME280;32333;55.844;-3.210;2023-02-13T08:50:07;101121.53;;;2.16;100.00
45872;BME280;32333;55.844;-3.210;2023-02-13T08:52:35;101123.49;;;3.53;100.00
45872;BME280;32333;55.844;-3.210;2023-02-13T08:55:03;101117.46;;;3.79;100.00
45872;BME280;32333;55.844;-3.210;2023-02-13T08:57:30;101119.20;;;3.66;100.00
45872;BME280;32333;55.844;-3.210;2023-02-13T08:59:58;101121.45;;;3.66;100.00
45872;BME280;32333;55.844;-3.210;2023-02-13T09:02:26;101109.12;;;4.45;100.00
45872;BME280;32333;55.844;-3.210;2023-02-13T09:04:55;101103.26;;;6.09;100.00
45872;BME280;32333;55.844;-3.210;2023-02-13T09:07:23;101105.45;;;5.07;100.00
45872;BME280;32333;55.844;-3.210;2023-02-13T09:09:50;101093.57;;;4.87;100.00
45872;BME280;32333;55.844;-3.210;2023-02-13T09:14:35;101084.42;;;4.81;100.00
45872;BME280;32333;55.844;-3.210;2023-02-13T09:17:03;101080.96;;;6.23;100.00
45872;BME280;32333;55.844;-3.210;2023-02-13T09:19:30;101083.33;;;5.73;100.00
45872;BME280;32333;55.844;-3.210;2023-02-13T09:21:58;101085.26;;;5.53;100.00
45872;BME280;32333;55.844;-3.210;2023-02-13T09:24:26;101076.33;;;7.39;97.03
45872;BME280;32333;55.844;-3.210;2023-02-13T09:26:53;101073.82;;;7.49;89.82
45872;BME280;32333;55.844;-3.210;2023-02-13T09:29:20;101078.42;;;8.07;98.02
45872;BME280;32333;55.844;-3.210;2023-02-13T09:31:47;101079.43;;;7.06;97.33
45872;BME280;32333;55.844;-3.210;2023-02-13T09:34:16;101070.06;;;5.98;100.00
45872;BME280;32333;55.844;-3.210;2023-02-13T09:36:44;101076.19;;;6.83;100.00
45872;BME280;32333;55.844;-3.210;2023-02-13T09:39:11;101070.60;;;6.46;100.00
45872;BME280;32333;55.844;-3.210;2023-02-13T09:41:42;101053.85;;;9.04;86.87
45872;BME280;32333;55.844;-3.210;2023-02-13T09:44:38;101045.80;;;8.73;84.64
45872;BME280;32333;55.844;-3.210;2023-02-13T09:47:14;101046.86;;;8.90;87.91
45872;BME280;32333;55.844;-3.210;2023-02-13T09:49:47;101039.64;;;8.55;85.53
45872;BME280;32333;55.844;-3.210;2023-02-13T09:52:16;101041.37;;;9.43;77.76
45872;BME280;32333;55.844;-3.210;2023-02-13T09:54:44;101051.36;;;9.32;78.41
45872;BME280;32333;55.844;-3.210;2023-02-13T09:57:16;101053.57;;;8.34;84.08
45872;BME280;32333;55.844;-3.210;2023-02-13T09:59:55;101050.40;;;9.58;86.40
45872;BME280;32333;55.844;-3.210;2023-02-13T10:02:37;101041.72;;;8.64;82.31
45872;BME280;32333;55.844;-3.210;2023-02-13T10:05:22;101034.33;;;9.84;83.13
45872;BME280;32333;55.844;-3.210;2023-02-13T10:07:57;101033.10;;;8.70;85.16
45872;BME280;32333;55.844;-3.210;2023-02-13T10:10:35;101038.65;;;8.59;81.68
45872;BME280;32333;55.844;-3.210;2023-02-13T10:14:44;101048.97;;;8.10;98.02
45872;BME280;32333;55.844;-3.210;2023-02-13T10:17:16;101048.65;;;9.80;89.66
45872;BME280;32333;55.844;-3.210;2023-02-13T10:19:49;101049.42;;;8.30;90.60
45872;BME280;32333;55.844;-3.210;2023-02-13T10:22:22;101055.00;;;8.25;88.75
45872;BME280;32333;55.844;-3.210;2023-02-13T10:24:55;101059.50;;;8.71;87.07
45872;BME280;32333;55.844;-3.210;2023-02-13T10:27:29;101057.82;;;8.69;93.73
45872;BME280;32333;55.844;-3.210;2023-02-13T10:30:04;101069.87;;;6.37;100.00
45872;BME280;32333;55.844;-3.210;2023-02-13T10:32:41;101069.86;;;8.30;97.83
45872;BME280;32333;55.844;-3.210;2023-02-13T10:35:18;101067.58;;;8.75;94.45
45872;BME280;32333;55.844;-3.210;2023-02-13T10:37:48;101061.45;;;9.19;95.23
45872;BME280;32333;55.844;-3.210;2023-02-13T10:40:18;101059.44;;;8.54;96.82
45872;BME280;32333;55.844;-3.210;2023-02-13T10:44:44;101058.72;;;9.44;91.24
45872;BME280;32333;55.844;-3.210;2023-02-13T10:47:29;101057.19;;;9.98;85.08
45872;BME280;32333;55.844;-3.210;2023-02-13T10:50:13;101059.12;;;9.99;86.19
45872;BME280;32333;55.844;-3.210;2023-02-13T10:52:49;101060.34;;;8.05;91.75
45872;BME280;32333;55.844;-3.210;2023-02-13T10:55:28;101058.56;;;8.86;92.99
45872;BME280;32333;55.844;-3.210;2023-02-13T10:58:06;101055.65;;;8.24;96.23
45872;BME280;32333;55.844;-3.210;2023-02-13T11:00:40;101054.40;;;8.77;97.45
45872;BME280;32333;55.844;-3.210;2023-02-13T11:03:18;101043.92;;;8.62;95.93
45872;BME280;32333;55.844;-3.210;2023-02-13T11:05:46;101040.71;;;9.73;90.66
45872;BME280;32333;55.844;-3.210;2023-02-13T11:08:19;101039.70;;;8.84;94.67
45872;BME280;32333;55.844;-3.210;2023-02-13T11:10:47;101042.92;;;8.24;97.91
45872;BME280;32333;55.844;-3.210;2023-02-13T11:14:38;101046.86;;;9.49;91.28
45872;BME280;32333;55.844;-3.210;2023-02-13T11:17:19;101041.68;;;8.73;91.50
45872;BME280;32333;55.844;-3.210;2023-02-13T11:19:49;101044.50;;;9.68;91.96
45872;BME280;32333;55.844;-3.210;2023-02-13T11:22:28;101045.50;;;8.82;90.84
45872;BME280;32333;55.844;-3.210;2023-02-13T11:25:00;101050.16;;;9.04;92.35
45872;BME280;32333;55.844;-3.210;2023-02-13T11:27:32;101048.92;;;9.02;91.43
45872;BME280;32333;55.844;-3.210;2023-02-13T11:30:04;101045.50;;;9.55;88.80
45872;BME280;32333;55.844;-3.210;2023-02-13T11:32:33;101047.16;;;8.82;89.17
45872;BME280;32333;55.844;-3.210;2023-02-13T11:35:30;101039.77;;;10.51;83.98
45872;BME280;32333;55.844;-3.210;2023-02-13T11:38:22;101033.56;;;8.94;92.56
45872;BME280;32333;55.844;-3.210;2023-02-13T11:40:52;101036.40;;;9.81;83.04
45872;BME280;32333;55.844;-3.210;2023-02-13T11:44:36;101029.83;;;10.08;80.88
45872;BME280;32333;55.844;-3.210;2023-02-13T11:47:04;101033.35;;;8.03;91.30
45872;BME280;32333;55.844;-3.210;2023-02-13T11:49:35;101032.15;;;9.22;89.00
45872;BME280;32333;55.844;-3.210;2023-02-13T11:52:05;101030.30;;;9.86;86.82
45872;BME280;32333;55.844;-3.210;2023-02-13T11:54:35;101028.78;;;9.41;87.70
45872;BME280;32333;55.844;-3.210;2023-02-13T11:57:18;101027.64;;;9.32;83.63
45872;BME280;32333;55.844;-3.210;2023-02-13T11:59:48;101022.31;;;8.85;86.02
45872;BME280;32333;55.844;-3.210;2023-02-13T12:02:19;101022.56;;;7.30;93.20
45872;BME280;32333;55.844;-3.210;2023-02-13T12:04:49;101028.00;;;7.06;100.00
45872;BME280;32333;55.844;-3.210;2023-02-13T12:07:21;101016.81;;;9.63;93.47
45872;BME280;32333;55.844;-3.210;2023-02-13T12:09:54;101014.13;;;8.78;93.70
45872;BME280;32333;55.844;-3.210;2023-02-13T12:14:38;101009.61;;;8.98;92.24
45872;BME280;32333;55.844;-3.210;2023-02-13T12:17:08;101013.67;;;5.42;100.00
45872;BME280;32333;55.844;-3.210;2023-02-13T12:19:41;101010.30;;;6.71;100.00
45872;BME280;32333;55.844;-3.210;2023-02-13T12:22:22;101006.22;;;7.09;100.00
45872;BME280;32333;55.844;-3.210;2023-02-13T12:25:10;101001.41;;;8.25;100.00
45872;BME280;32333;55.844;-3.210;2023-02-13T12:27:46;101001.54;;;8.51;100.00
45872;BME280;32333;55.844;-3.210;2023-02-13T12:30:34;101005.28;;;8.01;100.00
45872;BME280;32333;55.844;-3.210;2023-02-13T12:33:18;101005.01;;;7.17;100.00
45872;BME280;32333;55.844;-3.210;2023-02-13T12:36:17;100998.75;;;7.89;100.00
45872;BME280;32333;55.844;-3.210;2023-02-13T12:38:55;101001.88;;;8.61;97.52
45872;BME280;32333;55.844;-3.210;2023-02-13T12:41:34;100993.79;;;9.47;94.37
45872;BME280;32333;55.844;-3.210;2023-02-13T12:44:53;100990.21;;;8.98;95.34
45872;BME280;32333;55.844;-3.210;2023-02-13T12:47:28;100982.20;;;7.11;100.00
45872;BME280;32333;55.844;-3.210;2023-02-13T12:50:39;100979.21;;;7.03;100.00
45872;BME280;32333;55.844;-3.210;2023-02-13T12:53:21;100977.77;;;6.05;100.00
45872;BME280;32333;55.844;-3.210;2023-02-13T12:56:29;100974.71;;;7.35;100.00
45872;BME280;32333;55.844;-3.210;2023-02-13T12:59:08;100974.21;;;7.99;100.00
45872;BME280;32333;55.844;-3.210;2023-02-13T13:01:58;100973.60;;;7.94;100.00
45872;BME280;32333;55.844;-3.210;2023-02-13T13:04:43;100979.18;;;8.11;100.00
45872;BME280;32333;55.844;-3.210;2023-02-13T13:07:25;100983.09;;;7.65;100.00
45872;BME280;32333;55.844;-3.210;2023-02-13T13:10:02;100979.94;;;7.36;100.00
45872;BME280;32333;55.844;-3.210;2023-02-13T13:14:42;100974.27;;;8.67;100.00
45872;BME280;32333;55.844;-3.210;2023-02-13T13:17:24;100971.97;;;9.10;98.70
45872;BME280;32333;55.844;-3.210;2023-02-13T13:20:02;100967.85;;;9.50;96.96
45872;BME280;32333;55.844;-3.210;2023-02-13T13:22:35;100967.73;;;9.95;91.71
45872;BME280;32333;55.844;-3.210;2023-02-13T13:25:13;100959.78;;;9.79;90.43
45872;BME280;32333;55.844;-3.210;2023-02-13T13:27:48;100962.03;;;7.88;99.49
45872;BME280;32333;55.844;-3.210;2023-02-13T13:30:19;100959.63;;;8.87;95.27
45872;BME280;32333;55.844;-3.210;2023-02-13T13:32:50;100956.69;;;8.22;99.42
45872;BME280;32333;55.844;-3.210;2023-02-13T13:35:27;100956.33;;;8.07;95.64
45872;BME280;32333;55.844;-3.210;2023-02-13T13:38:03;100951.46;;;8.46;100.00
45872;BME280;32333;55.844;-3.210;2023-02-13T13:40:41;100948.92;;;9.08;95.99